Historique des mesures à Cassis (13260), France
Quotidien Résumé Fevrier 5, 2018 Unités:  US    Métrique   Métrique/US
« Précédent (Jour)
Suivant (Jour) »
Quotidien Hebdomadaire Mensuel Annuel Période au choix
  Maximum: Minimum: Moyenne:
Température: 32 °F 45.1 °F 48.4 °F
Point de rosée: 32 °F 39.2 °F 41 °F
Humidité: Humidity % 69 % 72 %
Vitesse du vent: WindSpeedKMH mph 0.0 mph 4.3 mph
Rafales: WindSpeedGustKMH mph - -
Vent:- - East
Pression: 0 in 29.8 in -
Précipitations: 7.9 in    
Historical Graphs
 
 
Mesures pour : Fevrier 5, 2018
Heure Temperature Point de rosée Pression Vent Vitesse du vent Rafales Humidité Pluie (par heure)
32 °F 32 °F 0 in Calm     Humidity % HourlyPrecipMM in
00:12 48.9 °F 39.2 °F 29.8 in East 5.0 mph 6.4 mph 69 % 0.0 in
01:12 49.3 °F 39.6 °F 29.9 in SSE 4.7 mph 5.5 mph 69 % 0.0 in
02:12 49.6 °F 39.9 °F 29.8 in Calm   2.9 mph 69 % 0.0 in
03:12 48.9 °F 40.6 °F 29.8 in ENE 5.0 mph 5.0 mph 73 % 0.0 in
04:12 47.5 °F 41.4 °F 29.8 in SE 1.4 mph 2.6 mph 79 % 2.0 in
05:12 46.4 °F 41.2 °F 29.8 in Calm   6.4 mph 82 % 3.0 in
06:12 46 °F 40.6 °F 29.8 in Calm   6.1 mph 81 % 0.5 in
07:12 45.5 °F 40.3 °F 29.8 in ESE 4.3 mph 11.9 mph 82 % 0.5 in
08:12 45.1 °F 39.9 °F 29.8 in SE 5.0 mph 5.0 mph 82 % 0.5 in
09:12 46.6 °F 41.4 °F 29.8 in Calm   2.9 mph 82 % 0.5 in
10:12 46.6 °F 40.8 °F 29.8 in NE 6.4 mph 8.7 mph 80 % 0.0 in
11:12 47.5 °F 41.5 °F 29.8 in East 7.2 mph 7.6 mph 80 % 0.0 in
12:12 49.8 °F 41.7 °F 29.8 in ESE 5.8 mph 13.0 mph 74 % 0.0 in
13:12 51.8 °F 43.5 °F 29.8 in ESE 6.1 mph 9.3 mph 73 % 0.0 in
14:12 52.5 °F 43.2 °F 29.8 in ESE 8.2 mph 8.2 mph 70 % 0.0 in
15:12 53.4 °F 43.5 °F 29.8 in NNE 9.0 mph 15.4 mph 69 % 0.0 in
16:12 52.3 °F 42.4 °F 29.8 in East 6.4 mph 9.3 mph 69 % 0.0 in
17:12 51.4 °F 41.7 °F 29.8 in SE 13.4 mph 13.4 mph 69 % 0.0 in
18:12 49.1 °F 42.4 °F 29.8 in Calm   3.2 mph 78 % 0.5 in
19:12 49.6 °F 43 °F 29.8 in SE 3.2 mph 6.1 mph 78 % 0.0 in
20:12 49.8 °F 42.3 °F 29.8 in ENE 1.4 mph 3.5 mph 75 % 0.0 in
21:12 49.8 °F 41.7 °F 29.8 in ESE 3.2 mph 6.1 mph 74 % 0.0 in
22:12 50.2 °F 41.5 °F 29.8 in East 6.1 mph 6.8 mph 72 % 0.0 in
23:12 50.2 °F 41.5 °F 29.8 in East 6.4 mph 10.1 mph 72 % 0.0 in
Observations météo à CASSIS
WU-History script by Weather Underground - 1 mb